Time;durP1;ratioP1;P1;durP2;ratioP2;P2;SDS_P1;SDS_P2;PMS_P1;PMS_P2;Temp;Humidity;BMP_temperature;BMP_pressure;BME280_temperature;BME280_humidity;BME280_pressure;Samples;Min_cycle;Max_cycle;Signal;HPM_P1;HPM_P2
2020/12/31 00:01:16;;;;;;;;;;;18.50;40.50;;;;;;491584;240;1254;-53
2020/12/31 00:03:17;;;;;;;;;;;18.50;40.50;;;;;;491644;240;1046;-53
2020/12/31 00:05:18;;;;;;;;;;;18.50;40.50;;;;;;491590;240;2322;-53
2020/12/31 00:07:20;;;;;;;;;;;18.50;40.50;;;;;;491663;240;1357;-53
2020/12/31 00:09:23;;;;;;;;;;;18.50;40.50;;;;;;491668;240;1052;-53
2020/12/31 00:11:22;;;;;;;;;;;18.50;40.50;;;;;;491625;241;2163;-53
2020/12/31 00:13:23;;;;;;;;;;;18.50;40.50;;;;;;491881;240;1062;-53
2020/12/31 00:15:25;;;;;;;;;;;18.50;40.60;;;;;;491737;240;1276;-52
2020/12/31 00:17:26;;;;;;;;;;;18.50;40.60;;;;;;491624;240;1356;-52
2020/12/31 00:19:27;;;;;;;;;;;18.50;40.60;;;;;;491979;240;1047;-52
2020/12/31 00:21:28;;;;;;;;;;;18.50;40.60;;;;;;491730;240;1316;-53
2020/12/31 00:23:30;;;;;;;;;;;18.40;40.50;;;;;;491654;240;2140;-53
2020/12/31 00:25:31;;;;;;;;;;;18.40;40.50;;;;;;491627;240;1064;-53
2020/12/31 00:27:32;;;;;;;;;;;18.40;40.60;;;;;;491654;240;1235;-53
2020/12/31 00:29:33;;;;;;;;;;;18.40;40.60;;;;;;491797;240;1070;-53
2020/12/31 00:31:35;;;;;;;;;;;18.40;40.60;;;;;;491880;240;1172;-53
2020/12/31 00:33:36;;;;;;;;;;;18.40;40.60;;;;;;491789;240;1190;-53
2020/12/31 00:35:37;;;;;;;;;;;18.40;40.60;;;;;;491758;240;1187;-52
2020/12/31 00:37:39;;;;;;;;;;;18.40;40.60;;;;;;491704;240;1162;-52
2020/12/31 00:39:40;;;;;;;;;;;18.40;40.60;;;;;;492038;240;947;-53
2020/12/31 00:41:41;;;;;;;;;;;18.40;40.60;;;;;;491604;240;1245;-53
2020/12/31 00:43:42;;;;;;;;;;;18.40;40.60;;;;;;491660;240;2121;-52
2020/12/31 00:45:44;;;;;;;;;;;18.40;40.60;;;;;;491738;240;1393;-53
2020/12/31 00:47:45;;;;;;;;;;;18.40;40.60;;;;;;491656;240;1154;-52
2020/12/31 00:49:46;;;;;;;;;;;18.40;40.60;;;;;;491924;240;946;-53
2020/12/31 00:51:48;;;;;;;;;;;18.40;40.70;;;;;;491896;240;1155;-53
2020/12/31 00:53:49;;;;;;;;;;;18.40;40.70;;;;;;491699;240;1200;-53
2020/12/31 00:55:50;;;;;;;;;;;18.40;40.70;;;;;;491668;240;1073;-53
2020/12/31 00:57:51;;;;;;;;;;;18.40;40.70;;;;;;491624;240;1249;-53
2020/12/31 00:59:53;;;;;;;;;;;18.30;40.60;;;;;;491630;240;1067;-53
2020/12/31 01:01:54;;;;;;;;;;;18.30;40.60;;;;;;491721;240;1159;-53
2020/12/31 01:03:55;;;;;;;;;;;18.30;40.70;;;;;;491677;240;2133;-53
2020/12/31 01:05:56;;;;;;;;;;;18.30;40.70;;;;;;491667;240;1067;-53
2020/12/31 01:07:58;;;;;;;;;;;18.30;40.70;;;;;;491637;240;1308;-53
2020/12/31 01:09:59;;;;;;;;;;;18.30;40.70;;;;;;491822;240;1040;-52
2020/12/31 01:12:00;;;;;;;;;;;18.30;40.70;;;;;;491594;240;1262;-53
2020/12/31 01:14:02;;;;;;;;;;;18.30;40.70;;;;;;491734;240;1065;-53
2020/12/31 01:16:03;;;;;;;;;;;18.30;40.70;;;;;;491831;240;1060;-53
2020/12/31 01:18:04;;;;;;;;;;;18.20;40.70;;;;;;491725;240;1280;-53
2020/12/31 01:20:05;;;;;;;;;;;18.20;40.70;;;;;;491640;240;1237;-53
2020/12/31 01:22:07;;;;;;;;;;;18.30;40.60;;;;;;492074;240;1127;-53
2020/12/31 01:24:08;;;;;;;;;;;18.30;40.60;;;;;;491650;240;2142;-53
2020/12/31 01:26:09;;;;;;;;;;;18.30;40.50;;;;;;491774;240;1178;-53
2020/12/31 01:28:10;;;;;;;;;;;18.40;40.50;;;;;;491629;240;1208;-53
2020/12/31 01:30:12;;;;;;;;;;;18.40;40.50;;;;;;491778;240;1206;-53
2020/12/31 01:32:13;;;;;;;;;;;18.40;40.50;;;;;;491984;240;1163;-53
2020/12/31 01:34:14;;;;;;;;;;;18.40;40.40;;;;;;491705;240;1118;-53
2020/12/31 01:36:15;;;;;;;;;;;18.40;40.40;;;;;;491599;240;1296;-53
2020/12/31 01:38:17;;;;;;;;;;;18.40;40.40;;;;;;491588;240;1225;-53
2020/12/31 01:40:18;;;;;;;;;;;18.50;40.40;;;;;;491930;240;959;-53
2020/12/31 01:42:19;;;;;;;;;;;18.50;40.30;;;;;;491631;240;1188;-53
2020/12/31 01:44:21;;;;;;;;;;;18.50;40.30;;;;;;491668;240;2140;-53
2020/12/31 01:46:22;;;;;;;;;;;18.50;40.30;;;;;;491740;240;1026;-53
2020/12/31 01:48:23;;;;;;;;;;;18.50;40.20;;;;;;491636;240;1073;-53
2020/12/31 01:50:24;;;;;;;;;;;18.50;40.20;;;;;;491978;240;1198;-53
2020/12/31 01:52:26;;;;;;;;;;;18.60;40.20;;;;;;491854;240;1175;-53
2020/12/31 01:54:27;;;;;;;;;;;18.60;40.20;;;;;;492072;240;1070;-53
2020/12/31 01:56:28;;;;;;;;;;;18.60;40.20;;;;;;491675;240;1168;-53
2020/12/31 01:58:30;;;;;;;;;;;18.60;40.10;;;;;;491704;240;1132;-53
2020/12/31 02:00:31;;;;;;;;;;;18.60;40.10;;;;;;491574;240;1163;-53
2020/12/31 02:02:32;;;;;;;;;;;18.70;40.10;;;;;;491714;240;1065;-53
2020/12/31 02:04:34;;;;;;;;;;;18.60;38.70;;;;;;491830;240;2137;-52
2020/12/31 02:06:35;;;;;;;;;;;18.60;40.00;;;;;;491772;240;1650;-54
2020/12/31 02:08:36;;;;;;;;;;;18.70;40.00;;;;;;491705;240;1010;-53
2020/12/31 02:10:37;;;;;;;;;;;18.70;40.00;;;;;;491691;240;1310;-53
2020/12/31 02:12:39;;;;;;;;;;;18.70;40.00;;;;;;491649;240;1126;-53
2020/12/31 02:14:40;;;;;;;;;;;18.70;39.90;;;;;;491663;240;1329;-53
2020/12/31 02:16:41;;;;;;;;;;;18.70;39.90;;;;;;491666;240;1047;-53
2020/12/31 02:18:43;;;;;;;;;;;18.80;39.90;;;;;;491768;240;1018;-53
2020/12/31 02:20:44;;;;;;;;;;;18.80;39.90;;;;;;491738;240;1285;-53
2020/12/31 02:22:45;;;;;;;;;;;18.80;39.90;;;;;;491800;240;957;-53
2020/12/31 02:24:46;;;;;;;;;;;18.80;39.80;;;;;;491780;240;2132;-53
2020/12/31 02:26:48;;;;;;;;;;;18.80;39.80;;;;;;491803;240;1159;-53
2020/12/31 02:28:50;;;;;;;;;;;18.80;39.80;;;;;;491725;240;1203;-53
2020/12/31 02:30:52;;;;;;;;;;;18.90;39.80;;;;;;491788;240;1206;-53
2020/12/31 02:32:53;;;;;;;;;;;18.90;39.80;;;;;;491618;240;952;-53
2020/12/31 02:34:54;;;;;;;;;;;18.90;39.70;;;;;;491723;240;1190;-53
2020/12/31 02:36:56;;;;;;;;;;;18.90;39.70;;;;;;491741;240;1136;-53
2020/12/31 02:38:57;;;;;;;;;;;18.90;39.70;;;;;;491651;240;1237;-53
2020/12/31 02:40:58;;;;;;;;;;;18.90;39.70;;;;;;491579;240;1153;-53
2020/12/31 02:42:59;;;;;;;;;;;18.90;39.60;;;;;;491644;240;1136;-53
2020/12/31 02:45:01;;;;;;;;;;;18.90;39.60;;;;;;491708;240;2129;-53
2020/12/31 02:47:02;;;;;;;;;;;18.90;39.60;;;;;;491671;240;1127;-53
2020/12/31 02:49:03;;;;;;;;;;;19.00;39.60;;;;;;491811;240;1053;-53
2020/12/31 02:51:04;;;;;;;;;;;19.00;39.60;;;;;;491740;240;1061;-53
2020/12/31 02:53:06;;;;;;;;;;;19.00;39.60;;;;;;491872;240;1043;-53
2020/12/31 02:55:07;;;;;;;;;;;19.00;39.60;;;;;;491935;240;1101;-53
2020/12/31 02:57:09;;;;;;;;;;;19.00;39.60;;;;;;491747;240;1100;-53
2020/12/31 02:59:10;;;;;;;;;;;19.00;38.20;;;;;;491670;240;1201;-53
2020/12/31 03:01:11;;;;;;;;;;;19.00;38.20;;;;;;491653;240;1437;-53
2020/12/31 03:03:13;;;;;;;;;;;19.00;39.50;;;;;;491810;240;1070;-53
2020/12/31 03:05:14;;;;;;;;;;;19.10;39.50;;;;;;491573;240;2133;-53
2020/12/31 03:07:15;;;;;;;;;;;19.10;39.50;;;;;;491575;240;1235;-52
2020/12/31 03:09:16;;;;;;;;;;;19.10;39.50;;;;;;491855;240;1000;-53
2020/12/31 03:11:18;;;;;;;;;;;19.10;39.50;;;;;;491765;240;1208;-53
2020/12/31 03:13:19;;;;;;;;;;;19.10;39.50;;;;;;491708;240;1322;-53
2020/12/31 03:15:20;;;;;;;;;;;19.10;39.40;;;;;;491642;240;1054;-53
2020/12/31 03:17:21;;;;;;;;;;;19.10;39.40;;;;;;491703;240;1237;-53
2020/12/31 03:19:27;;;;;;;;;;;19.10;39.40;;;;;;491625;240;1047;-54
2020/12/31 03:21:29;;;;;;;;;;;19.10;39.40;;;;;;491598;240;2297;-53
2020/12/31 03:23:30;;;;;;;;;;;19.10;39.40;;;;;;491708;240;1047;-53
2020/12/31 03:25:31;;;;;;;;;;;19.10;39.30;;;;;;491835;240;2139;-53
2020/12/31 03:27:32;;;;;;;;;;;19.20;39.40;;;;;;491703;240;1065;-53
2020/12/31 03:29:34;;;;;;;;;;;19.20;39.40;;;;;;491723;240;1181;-53
2020/12/31 03:31:35;;;;;;;;;;;19.20;39.30;;;;;;491872;240;1050;-53
2020/12/31 03:33:36;;;;;;;;;;;19.20;39.30;;;;;;491633;240;988;-53
2020/12/31 03:35:37;;;;;;;;;;;19.20;39.30;;;;;;491719;240;963;-53
2020/12/31 03:37:39;;;;;;;;;;;19.20;39.30;;;;;;491737;240;1040;-53
2020/12/31 03:39:40;;;;;;;;;;;19.20;39.30;;;;;;491754;240;967;-53
2020/12/31 03:41:41;;;;;;;;;;;19.20;39.30;;;;;;491732;240;985;-53
2020/12/31 03:43:43;;;;;;;;;;;19.20;39.30;;;;;;491748;240;1117;-53
2020/12/31 03:45:44;;;;;;;;;;;19.30;39.30;;;;;;491652;240;2133;-53
2020/12/31 03:47:45;;;;;;;;;;;19.30;39.30;;;;;;491706;240;1506;-53
2020/12/31 03:49:46;;;;;;;;;;;19.30;39.30;;;;;;491905;240;1061;-53
2020/12/31 03:51:48;;;;;;;;;;;19.30;39.20;;;;;;491777;240;1181;-53
2020/12/31 03:53:49;;;;;;;;;;;19.30;39.20;;;;;;491745;240;1199;-53
2020/12/31 03:55:50;;;;;;;;;;;19.30;39.20;;;;;;491660;240;1037;-53
2020/12/31 03:57:51;;;;;;;;;;;19.30;39.20;;;;;;491661;240;1249;-53
2020/12/31 03:59:53;;;;;;;;;;;19.30;39.20;;;;;;491657;240;1172;-53
2020/12/31 04:01:54;;;;;;;;;;;19.30;39.20;;;;;;491701;240;1186;-53
2020/12/31 04:03:55;;;;;;;;;;;19.30;39.20;;;;;;491659;240;1053;-53
2020/12/31 04:05:57;;;;;;;;;;;19.30;39.20;;;;;;491652;240;2175;-53
2020/12/31 04:07:58;;;;;;;;;;;19.30;39.20;;;;;;491723;240;1039;-53
2020/12/31 04:09:59;;;;;;;;;;;19.30;37.80;;;;;;491622;240;1219;-53
2020/12/31 04:12:00;;;;;;;;;;;19.40;39.20;;;;;;491697;240;1182;-53
2020/12/31 04:14:02;;;;;;;;;;;19.40;39.20;;;;;;491628;240;1311;-53
2020/12/31 04:16:03;;;;;;;;;;;19.40;39.10;;;;;;491551;240;1096;-53
2020/12/31 04:18:04;;;;;;;;;;;19.40;39.10;;;;;;491640;240;1073;-53
2020/12/31 04:20:05;;;;;;;;;;;19.40;39.10;;;;;;491716;240;1032;-53
2020/12/31 04:22:07;;;;;;;;;;;19.40;39.10;;;;;;491637;240;1064;-53
2020/12/31 04:24:08;;;;;;;;;;;19.40;39.10;;;;;;491857;240;1065;-53
2020/12/31 04:26:09;;;;;;;;;;;19.40;39.10;;;;;;491721;240;2169;-53
2020/12/31 04:28:11;;;;;;;;;;;19.40;37.80;;;;;;491590;240;1215;-53
2020/12/31 04:30:12;;;;;;;;;;;19.40;39.10;;;;;;491656;240;1177;-53
2020/12/31 04:32:13;;;;;;;;;;;19.40;39.10;;;;;;491616;240;1210;-53
2020/12/31 04:34:15;;;;;;;;;;;19.40;39.00;;;;;;491678;240;1079;-53
2020/12/31 04:36:16;;;;;;;;;;;19.40;39.00;;;;;;491672;240;1475;-53
2020/12/31 04:38:17;;;;;;;;;;;19.40;39.00;;;;;;491805;240;1059;-53
2020/12/31 04:40:18;;;;;;;;;;;19.40;39.00;;;;;;491618;240;1145;-53
2020/12/31 04:42:20;;;;;;;;;;;19.40;39.00;;;;;;491594;240;1155;-53
2020/12/31 04:44:21;;;;;;;;;;;19.50;39.00;;;;;;491985;240;1160;-53
2020/12/31 04:46:22;;;;;;;;;;;19.50;39.00;;;;;;491612;240;2192;-53
2020/12/31 04:48:23;;;;;;;;;;;19.50;39.00;;;;;;491737;240;1022;-53
2020/12/31 04:50:25;;;;;;;;;;;19.40;37.60;;;;;;491607;240;1218;-52
2020/12/31 04:52:26;;;;;;;;;;;19.50;39.00;;;;;;491959;240;1491;-53
2020/12/31 04:54:27;;;;;;;;;;;19.50;39.00;;;;;;491663;240;1093;-54
2020/12/31 04:56:29;;;;;;;;;;;19.50;38.90;;;;;;491697;240;1185;-53
2020/12/31 04:58:30;;;;;;;;;;;19.50;38.90;;;;;;491609;240;1256;-53
2020/12/31 05:00:31;;;;;;;;;;;19.50;38.90;;;;;;491577;240;1169;-53
2020/12/31 05:02:32;;;;;;;;;;;19.50;39.00;;;;;;491698;240;1322;-53
2020/12/31 05:04:34;;;;;;;;;;;19.50;38.90;;;;;;491657;240;923;-53
2020/12/31 05:06:35;;;;;;;;;;;19.50;37.60;;;;;;491569;240;2149;-53
2020/12/31 05:08:36;;;;;;;;;;;19.50;38.90;;;;;;491704;240;1317;-53
2020/12/31 05:10:37;;;;;;;;;;;19.50;38.90;;;;;;491627;240;1022;-53
2020/12/31 05:12:39;;;;;;;;;;;19.50;38.90;;;;;;491716;240;1216;-53
2020/12/31 05:14:40;;;;;;;;;;;19.50;38.90;;;;;;491670;240;1147;-53
2020/12/31 05:16:41;;;;;;;;;;;19.60;38.90;;;;;;491770;240;1019;-53
2020/12/31 05:18:43;;;;;;;;;;;19.60;38.90;;;;;;491685;240;1050;-53
2020/12/31 05:20:46;;;;;;;;;;;19.60;38.90;;;;;;491658;240;1055;-53
2020/12/31 05:22:45;;;;;;;;;;;19.50;38.80;;;;;;491648;242;2349;-54
2020/12/31 05:24:47;;;;;;;;;;;19.60;38.90;;;;;;491662;240;1079;-53
2020/12/31 05:26:48;;;;;;;;;;;19.60;38.80;;;;;;491736;240;2180;-53
2020/12/31 05:28:49;;;;;;;;;;;19.50;38.80;;;;;;491706;240;1122;-53
2020/12/31 05:30:50;;;;;;;;;;;19.60;38.80;;;;;;491737;240;1123;-53
2020/12/31 05:32:52;;;;;;;;;;;19.60;38.80;;;;;;491821;240;974;-53
2020/12/31 05:34:53;;;;;;;;;;;19.60;38.80;;;;;;491799;240;1067;-52
2020/12/31 05:36:54;;;;;;;;;;;19.60;38.80;;;;;;491682;240;1050;-53
2020/12/31 05:38:56;;;;;;;;;;;19.60;38.80;;;;;;491663;242;1075;-53
2020/12/31 05:40:58;;;;;;;;;;;19.60;38.80;;;;;;491773;240;1018;-52
2020/12/31 05:42:59;;;;;;;;;;;19.60;38.80;;;;;;491707;240;958;-53
2020/12/31 05:45:00;;;;;;;;;;;19.60;38.70;;;;;;491767;240;1169;-53
2020/12/31 05:47:02;;;;;;;;;;;19.60;38.80;;;;;;491756;240;2128;-53
2020/12/31 05:49:04;;;;;;;;;;;19.60;38.80;;;;;;491834;240;1111;-53
2020/12/31 05:51:04;;;;;;;;;;;19.60;38.70;;;;;;491729;240;2156;-53
2020/12/31 05:53:05;;;;;;;;;;;19.60;38.70;;;;;;491697;240;1050;-53
2020/12/31 05:55:08;;;;;;;;;;;19.70;38.80;;;;;;491673;240;1036;-53
2020/12/31 05:57:08;;;;;;;;;;;19.60;38.80;;;;;;491645;240;2227;-53
2020/12/31 05:59:09;;;;;;;;;;;19.60;38.70;;;;;;491655;240;1031;-53
2020/12/31 06:01:10;;;;;;;;;;;19.70;38.80;;;;;;491752;240;1295;-53
2020/12/31 06:03:12;;;;;;;;;;;19.60;38.70;;;;;;491671;240;966;-53
2020/12/31 06:05:14;;;;;;;;;;;19.70;38.70;;;;;;491877;240;1080;-53
2020/12/31 06:07:15;;;;;;;;;;;19.60;38.70;;;;;;491651;240;2192;-53
2020/12/31 06:09:16;;;;;;;;;;;19.70;38.70;;;;;;491737;240;974;-53
2020/12/31 06:11:17;;;;;;;;;;;19.70;38.70;;;;;;491769;240;1048;-53
2020/12/31 06:13:18;;;;;;;;;;;19.70;38.70;;;;;;491722;240;1096;-53
2020/12/31 06:15:20;;;;;;;;;;;19.70;38.70;;;;;;491714;240;1169;-53
2020/12/31 06:17:21;;;;;;;;;;;19.70;38.70;;;;;;491744;240;1192;-53
2020/12/31 06:19:23;;;;;;;;;;;19.70;38.70;;;;;;491898;240;976;-53
2020/12/31 06:21:24;;;;;;;;;;;19.70;38.70;;;;;;491634;240;1105;-53
2020/12/31 06:23:25;;;;;;;;;;;19.70;38.70;;;;;;491712;240;1008;-53
2020/12/31 06:25:26;;;;;;;;;;;19.70;38.60;;;;;;491702;240;1209;-53
2020/12/31 06:27:28;;;;;;;;;;;19.70;38.60;;;;;;491652;240;2120;-53
2020/12/31 06:29:29;;;;;;;;;;;19.70;38.60;;;;;;491630;240;1229;-53
2020/12/31 06:31:30;;;;;;;;;;;19.80;38.70;;;;;;491752;240;1334;-53
2020/12/31 06:33:32;;;;;;;;;;;19.70;38.60;;;;;;491754;240;951;-53
2020/12/31 06:35:33;;;;;;;;;;;19.70;38.60;;;;;;491605;240;1332;-53
2020/12/31 06:37:34;;;;;;;;;;;19.80;38.60;;;;;;491717;240;1147;-53
2020/12/31 06:39:35;;;;;;;;;;;19.80;38.60;;;;;;491885;240;1155;-53
2020/12/31 06:41:38;;;;;;;;;;;19.80;38.60;;;;;;491708;240;1139;-53
2020/12/31 06:43:39;;;;;;;;;;;19.80;38.60;;;;;;491681;240;1054;-53
2020/12/31 06:45:41;;;;;;;;;;;19.70;38.50;;;;;;491624;240;2188;-53
2020/12/31 06:47:42;;;;;;;;;;;19.70;38.60;;;;;;491714;240;1191;-53
2020/12/31 06:49:43;;;;;;;;;;;19.80;38.60;;;;;;491665;240;1036;-53
2020/12/31 06:51:44;;;;;;;;;;;19.80;38.60;;;;;;491644;240;1209;-53
2020/12/31 06:53:46;;;;;;;;;;;19.80;38.50;;;;;;491887;240;1192;-53
2020/12/31 06:55:47;;;;;;;;;;;19.80;38.60;;;;;;491863;240;1078;-53
2020/12/31 06:57:48;;;;;;;;;;;19.80;38.60;;;;;;491901;240;1187;-53
2020/12/31 06:59:50;;;;;;;;;;;19.70;38.60;;;;;;491840;240;1049;-53
2020/12/31 07:01:51;;;;;;;;;;;19.80;38.60;;;;;;491572;240;1225;-53
2020/12/31 07:03:52;;;;;;;;;;;19.80;38.60;;;;;;491719;240;1347;-53
2020/12/31 07:05:53;;;;;;;;;;;19.80;38.50;;;;;;491765;240;2140;-53
2020/12/31 07:07:55;;;;;;;;;;;19.80;38.60;;;;;;491762;240;1152;-53
2020/12/31 07:09:56;;;;;;;;;;;19.80;38.50;;;;;;491769;240;1038;-53
2020/12/31 07:11:58;;;;;;;;;;;19.80;38.50;;;;;;491717;240;1214;-53
2020/12/31 07:13:59;;;;;;;;;;;19.80;38.50;;;;;;491824;240;1061;-53
2020/12/31 07:16:00;;;;;;;;;;;19.80;38.50;;;;;;491614;240;1174;-53
2020/12/31 07:18:02;;;;;;;;;;;19.80;38.50;;;;;;491762;240;1021;-53
2020/12/31 07:20:03;;;;;;;;;;;19.80;38.50;;;;;;491700;240;1045;-53
2020/12/31 07:22:04;;;;;;;;;;;19.80;38.50;;;;;;491703;240;1239;-53
2020/12/31 07:24:05;;;;;;;;;;;19.80;38.50;;;;;;491708;240;1070;-53
2020/12/31 07:26:07;;;;;;;;;;;19.80;38.50;;;;;;491631;240;2168;-53
2020/12/31 07:28:08;;;;;;;;;;;19.80;38.50;;;;;;491669;240;957;-53
2020/12/31 07:30:09;;;;;;;;;;;19.80;38.40;;;;;;491891;240;1038;-53
2020/12/31 07:32:10;;;;;;;;;;;19.80;38.50;;;;;;491702;240;1166;-53
2020/12/31 07:34:12;;;;;;;;;;;19.80;38.40;;;;;;491671;240;1264;-53
2020/12/31 07:36:13;;;;;;;;;;;19.80;37.20;;;;;;491686;240;1149;-54
2020/12/31 07:38:15;;;;;;;;;;;19.80;38.50;;;;;;491627;240;1040;-53
2020/12/31 07:40:16;;;;;;;;;;;19.80;38.40;;;;;;491654;240;1068;-53
2020/12/31 07:42:19;;;;;;;;;;;19.80;38.50;;;;;;491716;240;1032;-53
2020/12/31 07:44:20;;;;;;;;;;;19.90;38.50;;;;;;491930;240;1065;-53
2020/12/31 07:46:21;;;;;;;;;;;19.80;38.40;;;;;;491654;240;2163;-53
2020/12/31 07:48:23;;;;;;;;;;;19.80;38.40;;;;;;491679;240;1056;-53
2020/12/31 07:50:24;;;;;;;;;;;19.80;38.40;;;;;;491714;240;1058;-53
2020/12/31 07:52:25;;;;;;;;;;;19.80;38.40;;;;;;491691;240;1032;-53
2020/12/31 07:54:26;;;;;;;;;;;19.90;38.50;;;;;;491714;240;1060;-53
2020/12/31 07:56:28;;;;;;;;;;;19.90;38.40;;;;;;491788;240;1055;-53
2020/12/31 07:58:29;;;;;;;;;;;19.90;38.40;;;;;;491695;240;997;-53
2020/12/31 08:00:32;;;;;;;;;;;19.90;38.50;;;;;;491666;240;949;-53
2020/12/31 08:02:32;;;;;;;;;;;19.90;38.50;;;;;;491557;242;1373;-53
2020/12/31 08:04:34;;;;;;;;;;;19.90;38.40;;;;;;491687;240;1184;-53
2020/12/31 08:06:34;;;;;;;;;;;19.90;38.50;;;;;;491623;241;2140;-53
2020/12/31 08:08:35;;;;;;;;;;;19.90;38.50;;;;;;491853;240;1175;-53
2020/12/31 08:10:37;;;;;;;;;;;20.00;38.30;;;;;;491841;240;1054;-53
2020/12/31 08:12:39;;;;;;;;;;;20.00;36.90;;;;;;491624;240;1432;-53
2020/12/31 08:14:40;;;;;;;;;;;20.00;38.30;;;;;;491652;240;1120;-53
2020/12/31 08:16:42;;;;;;;;;;;19.90;38.40;;;;;;491741;240;1176;-53
2020/12/31 08:18:43;;;;;;;;;;;19.90;38.50;;;;;;491655;240;1285;-53
2020/12/31 08:20:44;;;;;;;;;;;19.80;38.50;;;;;;491856;240;1046;-52
2020/12/31 08:22:45;;;;;;;;;;;19.70;38.60;;;;;;491723;240;1265;-52
2020/12/31 08:24:47;;;;;;;;;;;19.70;38.70;;;;;;491795;240;1055;-53
2020/12/31 08:26:48;;;;;;;;;;;19.70;38.80;;;;;;491597;240;2183;-52
2020/12/31 08:28:49;;;;;;;;;;;19.60;38.90;;;;;;491790;240;1171;-53
2020/12/31 08:30:51;;;;;;;;;;;19.60;39.00;;;;;;491802;240;1234;-53
2020/12/31 08:32:52;;;;;;;;;;;19.50;39.00;;;;;;491678;240;1220;-53
2020/12/31 08:34:53;;;;;;;;;;;19.50;39.10;;;;;;491957;240;1031;-53
2020/12/31 08:36:55;;;;;;;;;;;19.50;39.20;;;;;;491631;240;1211;-53
2020/12/31 08:38:58;;;;;;;;;;;19.40;39.20;;;;;;491744;240;1220;-53
2020/12/31 08:40:58;;;;;;;;;;;19.40;39.30;;;;;;491600;242;2468;-52
2020/12/31 08:42:59;;;;;;;;;;;19.30;39.30;;;;;;491713;240;1215;-53
2020/12/31 08:45:00;;;;;;;;;;;19.30;39.40;;;;;;491668;240;1042;-53
2020/12/31 08:47:01;;;;;;;;;;;19.30;39.40;;;;;;491626;240;2132;-53
2020/12/31 08:49:02;;;;;;;;;;;19.30;39.50;;;;;;491634;240;1065;-53
2020/12/31 08:51:04;;;;;;;;;;;19.20;39.50;;;;;;491686;240;1138;-53
2020/12/31 08:53:05;;;;;;;;;;;19.20;39.60;;;;;;491688;240;1212;-53
2020/12/31 08:55:06;;;;;;;;;;;19.10;39.60;;;;;;491689;240;986;-53
2020/12/31 08:57:07;;;;;;;;;;;19.10;39.60;;;;;;491668;240;1202;-52
2020/12/31 08:59:09;;;;;;;;;;;19.10;39.70;;;;;;491858;240;1032;-53
2020/12/31 09:01:10;;;;;;;;;;;19.10;39.70;;;;;;491708;240;991;-53
2020/12/31 09:03:11;;;;;;;;;;;19.00;39.70;;;;;;491763;240;1268;-53
2020/12/31 09:05:12;;;;;;;;;;;19.00;39.80;;;;;;491662;240;1056;-52
2020/12/31 09:07:14;;;;;;;;;;;19.00;39.80;;;;;;491898;240;2172;-53
2020/12/31 09:09:15;;;;;;;;;;;19.00;39.80;;;;;;491854;240;1048;-53
2020/12/31 09:11:16;;;;;;;;;;;19.00;39.90;;;;;;491665;240;937;-53
2020/12/31 09:13:18;;;;;;;;;;;19.00;39.90;;;;;;491924;240;982;-52
2020/12/31 09:15:19;;;;;;;;;;;18.90;39.90;;;;;;491781;240;1054;-53
2020/12/31 09:17:20;;;;;;;;;;;18.90;39.90;;;;;;491784;240;1063;-53
2020/12/31 09:19:21;;;;;;;;;;;18.90;39.90;;;;;;491888;240;1051;-53
2020/12/31 09:21:23;;;;;;;;;;;18.90;40.00;;;;;;491664;240;1057;-53
2020/12/31 09:23:24;;;;;;;;;;;18.90;40.00;;;;;;491842;240;959;-53
2020/12/31 09:25:25;;;;;;;;;;;18.90;40.00;;;;;;491603;240;1056;-53
2020/12/31 09:27:27;;;;;;;;;;;18.80;40.00;;;;;;491586;240;2200;-53
2020/12/31 09:29:28;;;;;;;;;;;18.80;40.00;;;;;;491691;240;1167;-52
2020/12/31 09:31:29;;;;;;;;;;;18.80;40.00;;;;;;491742;240;1321;-52
2020/12/31 09:33:31;;;;;;;;;;;18.80;40.10;;;;;;491754;240;1115;-53
2020/12/31 09:35:32;;;;;;;;;;;18.80;40.10;;;;;;491701;240;1229;-53
2020/12/31 09:37:33;;;;;;;;;;;18.80;40.10;;;;;;491606;240;1315;-53
2020/12/31 09:39:35;;;;;;;;;;;18.80;40.20;;;;;;491686;240;1232;-53
2020/12/31 09:41:36;;;;;;;;;;;18.70;40.10;;;;;;491764;240;1412;-53
2020/12/31 09:43:37;;;;;;;;;;;18.70;40.10;;;;;;491876;240;1034;-53
2020/12/31 09:45:39;;;;;;;;;;;18.70;40.10;;;;;;491635;240;1269;-52
2020/12/31 09:47:40;;;;;;;;;;;18.70;40.10;;;;;;491699;240;2144;-53
2020/12/31 09:49:41;;;;;;;;;;;18.70;40.20;;;;;;491690;240;1285;-53
2020/12/31 09:51:42;;;;;;;;;;;18.70;40.20;;;;;;491851;240;1069;-53
2020/12/31 09:53:44;;;;;;;;;;;18.60;40.20;;;;;;491673;240;1028;-52
2020/12/31 09:55:45;;;;;;;;;;;18.60;40.20;;;;;;491624;240;1013;-53
2020/12/31 09:57:46;;;;;;;;;;;18.70;40.20;;;;;;491592;240;1098;-53
2020/12/31 09:59:48;;;;;;;;;;;18.70;40.20;;;;;;491737;240;1077;-53
2020/12/31 10:01:50;;;;;;;;;;;18.70;40.20;;;;;;491623;240;1073;-53
2020/12/31 10:03:50;;;;;;;;;;;18.60;40.20;;;;;;491560;240;2294;-53
2020/12/31 10:05:51;;;;;;;;;;;18.60;40.20;;;;;;491705;240;1046;-53
2020/12/31 10:07:53;;;;;;;;;;;18.60;40.20;;;;;;491751;240;2185;-53
2020/12/31 10:09:54;;;;;;;;;;;18.60;40.20;;;;;;491718;240;1062;-53
2020/12/31 10:11:55;;;;;;;;;;;18.60;40.20;;;;;;491614;240;1309;-53
2020/12/31 10:13:57;;;;;;;;;;;18.60;40.20;;;;;;491710;240;960;-53
2020/12/31 10:15:58;;;;;;;;;;;18.60;40.20;;;;;;491965;240;1252;-53
2020/12/31 10:17:59;;;;;;;;;;;18.60;40.20;;;;;;491655;240;1207;-52
2020/12/31 10:20:01;;;;;;;;;;;18.60;40.20;;;;;;491654;240;1443;-53
2020/12/31 10:22:02;;;;;;;;;;;18.50;40.20;;;;;;491909;240;1504;-53
2020/12/31 10:24:03;;;;;;;;;;;18.50;40.20;;;;;;491670;240;1028;-53
2020/12/31 10:26:04;;;;;;;;;;;18.50;40.20;;;;;;491777;240;1511;-53
2020/12/31 10:28:05;;;;;;;;;;;18.50;38.90;;;;;;491638;240;2140;-53
2020/12/31 10:30:07;;;;;;;;;;;18.60;40.20;;;;;;491627;240;1372;-53
2020/12/31 10:32:08;;;;;;;;;;;18.50;40.20;;;;;;491675;240;1175;-53
2020/12/31 10:34:10;;;;;;;;;;;18.50;40.20;;;;;;491769;240;1160;-53
2020/12/31 10:36:11;;;;;;;;;;;18.50;40.20;;;;;;491729;240;1316;-53
2020/12/31 10:38:12;;;;;;;;;;;18.50;40.20;;;;;;491865;240;1085;-53
2020/12/31 10:40:14;;;;;;;;;;;18.50;40.20;;;;;;491718;240;1269;-52
2020/12/31 10:42:15;;;;;;;;;;;18.50;40.20;;;;;;491619;240;1187;-52
2020/12/31 10:44:16;;;;;;;;;;;18.50;40.20;;;;;;491691;240;1083;-53
2020/12/31 10:46:18;;;;;;;;;;;18.50;40.20;;;;;;491486;240;1344;-53
2020/12/31 10:48:19;;;;;;;;;;;18.50;40.20;;;;;;491728;240;2140;-53
2020/12/31 10:50:20;;;;;;;;;;;18.50;40.10;;;;;;491774;240;1022;-53
2020/12/31 10:52:22;;;;;;;;;;;18.50;40.10;;;;;;491735;240;1271;-52
2020/12/31 10:54:23;;;;;;;;;;;18.50;40.10;;;;;;491666;240;992;-52
2020/12/31 10:56:24;;;;;;;;;;;18.50;40.10;;;;;;491605;240;1202;-53
2020/12/31 10:58:26;;;;;;;;;;;18.50;40.10;;;;;;491635;240;1065;-53
2020/12/31 11:00:27;;;;;;;;;;;18.50;40.10;;;;;;492003;240;1078;-53
2020/12/31 11:02:28;;;;;;;;;;;18.50;40.10;;;;;;491643;240;1255;-53
2020/12/31 11:04:29;;;;;;;;;;;18.50;40.10;;;;;;491658;240;1130;-53
2020/12/31 11:06:31;;;;;;;;;;;18.50;40.10;;;;;;491734;240;1052;-53
2020/12/31 11:08:32;;;;;;;;;;;18.50;40.10;;;;;;491856;240;2172;-53
2020/12/31 11:10:33;;;;;;;;;;;18.50;40.10;;;;;;491670;240;1040;-53
2020/12/31 11:12:35;;;;;;;;;;;18.50;40.10;;;;;;491665;240;1176;-53
2020/12/31 11:14:36;;;;;;;;;;;18.50;40.10;;;;;;491793;240;1110;-53
2020/12/31 11:16:37;;;;;;;;;;;18.50;40.10;;;;;;491644;240;993;-53
2020/12/31 11:18:38;;;;;;;;;;;18.50;40.10;;;;;;491734;240;1198;-53
2020/12/31 11:20:40;;;;;;;;;;;18.50;38.80;;;;;;491979;240;1041;-52
2020/12/31 11:22:41;;;;;;;;;;;18.50;40.00;;;;;;491679;240;955;-53
2020/12/31 11:24:42;;;;;;;;;;;18.50;40.00;;;;;;491653;240;962;-53
2020/12/31 11:26:44;;;;;;;;;;;18.50;40.00;;;;;;491567;240;1115;-53
2020/12/31 11:28:46;;;;;;;;;;;18.50;40.00;;;;;;491656;240;2128;-53
2020/12/31 11:30:46;;;;;;;;;;;18.50;40.00;;;;;;491583;240;2173;-53
2020/12/31 11:32:47;;;;;;;;;;;18.50;40.00;;;;;;491863;240;1164;-53
2020/12/31 11:34:49;;;;;;;;;;;18.50;40.10;;;;;;491647;240;1273;-53
2020/12/31 11:36:50;;;;;;;;;;;18.50;40.00;;;;;;491815;240;1176;-52
2020/12/31 11:38:51;;;;;;;;;;;18.50;40.00;;;;;;491682;240;1212;-53
2020/12/31 11:40:53;;;;;;;;;;;18.50;40.00;;;;;;491636;240;1243;-53
2020/12/31 11:42:54;;;;;;;;;;;18.50;40.00;;;;;;491592;240;1149;-53
2020/12/31 11:44:55;;;;;;;;;;;18.50;40.00;;;;;;491879;240;1019;-53
2020/12/31 11:46:56;;;;;;;;;;;18.50;40.00;;;;;;491630;240;1452;-53
2020/12/31 11:48:58;;;;;;;;;;;18.50;40.00;;;;;;491723;240;2136;-53
2020/12/31 11:50:59;;;;;;;;;;;18.50;39.90;;;;;;491732;240;1291;-53
2020/12/31 11:53:01;;;;;;;;;;;18.50;39.90;;;;;;491664;240;1054;-52
2020/12/31 11:55:02;;;;;;;;;;;18.50;39.90;;;;;;491741;240;1224;-53
2020/12/31 11:57:04;;;;;;;;;;;18.50;39.90;;;;;;491932;240;1546;-53